sensor_id;sensor_type;location;lat;lon;timestamp;temperature;humidity
25200;DHT22;33094;48.782;9.162;2023-09-07T00:14:30;18.00;99.90
25200;DHT22;33094;48.782;9.162;2023-09-07T00:16:56;18.00;99.90
25200;DHT22;33094;48.782;9.162;2023-09-07T00:19:22;18.10;99.90
25200;DHT22;33094;48.782;9.162;2023-09-07T00:21:48;18.10;99.90
25200;DHT22;33094;48.782;9.162;2023-09-07T00:24:14;18.10;99.90
25200;DHT22;33094;48.782;9.162;2023-09-07T00:26:41;18.10;99.90
25200;DHT22;33094;48.782;9.162;2023-09-07T00:29:07;18.00;99.90
25200;DHT22;33094;48.782;9.162;2023-09-07T00:31:32;17.90;99.90
25200;DHT22;33094;48.782;9.162;2023-09-07T00:39:09;17.80;99.90
25200;DHT22;33094;48.782;9.162;2023-09-07T00:41:36;17.80;99.90
25200;DHT22;33094;48.782;9.162;2023-09-07T00:44:04;17.90;99.90
25200;DHT22;33094;48.782;9.162;2023-09-07T00:46:31;18.00;99.90
25200;DHT22;33094;48.782;9.162;2023-09-07T00:48:57;18.00;99.90
25200;DHT22;33094;48.782;9.162;2023-09-07T00:51:23;17.90;99.90
25200;DHT22;33094;48.782;9.162;2023-09-07T00:53:49;17.80;99.90
25200;DHT22;33094;48.782;9.162;2023-09-07T00:56:16;17.90;99.90
25200;DHT22;33094;48.782;9.162;2023-09-07T00:58:42;17.90;99.90
25200;DHT22;33094;48.782;9.162;2023-09-07T01:01:08;17.90;99.90
25200;DHT22;33094;48.782;9.162;2023-09-07T01:03:42;17.90;99.90
25200;DHT22;33094;48.782;9.162;2023-09-07T01:06:15;17.90;99.90
25200;DHT22;33094;48.782;9.162;2023-09-07T01:08:46;17.90;99.90
25200;DHT22;33094;48.782;9.162;2023-09-07T01:11:19;17.90;99.90
25200;DHT22;33094;48.782;9.162;2023-09-07T01:13:55;17.90;99.90
25200;DHT22;33094;48.782;9.162;2023-09-07T01:16:21;17.90;99.90
25200;DHT22;33094;48.782;9.162;2023-09-07T01:18:49;17.90;99.90
25200;DHT22;33094;48.782;9.162;2023-09-07T01:21:15;17.80;99.90
25200;DHT22;33094;48.782;9.162;2023-09-07T01:23:42;17.70;99.90
25200;DHT22;33094;48.782;9.162;2023-09-07T01:26:08;17.70;99.90
25200;DHT22;33094;48.782;9.162;2023-09-07T01:28:35;17.70;99.90
25200;DHT22;33094;48.782;9.162;2023-09-07T01:31:01;18.10;99.90
25200;DHT22;33094;48.782;9.162;2023-09-07T01:33:29;17.50;99.90
25200;DHT22;33094;48.782;9.162;2023-09-07T01:35:55;17.60;99.90
25200;DHT22;33094;48.782;9.162;2023-09-07T01:38:20;17.50;99.90
25200;DHT22;33094;48.782;9.162;2023-09-07T01:40:46;17.40;99.90
25200;DHT22;33094;48.782;9.162;2023-09-07T01:50:58;17.40;99.90
25200;DHT22;33094;48.782;9.162;2023-09-07T01:53:24;17.40;99.90
25200;DHT22;33094;48.782;9.162;2023-09-07T07:56:02;19.10;99.90
25200;DHT22;33094;48.782;9.162;2023-09-07T07:58:29;19.20;99.90
25200;DHT22;33094;48.782;9.162;2023-09-07T08:00:54;19.30;99.90
25200;DHT22;33094;48.782;9.162;2023-09-07T08:03:23;19.40;99.90
25200;DHT22;33094;48.782;9.162;2023-09-07T08:05:49;19.60;99.90
25200;DHT22;33094;48.782;9.162;2023-09-07T08:08:15;19.70;99.90
25200;DHT22;33094;48.782;9.162;2023-09-07T08:10:40;19.80;99.90
25200;DHT22;33094;48.782;9.162;2023-09-07T08:13:07;20.00;99.90
25200;DHT22;33094;48.782;9.162;2023-09-07T08:15:33;20.10;99.90
25200;DHT22;33094;48.782;9.162;2023-09-07T08:18:00;20.30;99.90
25200;DHT22;33094;48.782;9.162;2023-09-07T08:20:26;20.50;99.90
25200;DHT22;33094;48.782;9.162;2023-09-07T08:22:54;20.60;99.80
25200;DHT22;33094;48.782;9.162;2023-09-07T08:25:20;20.80;99.60
25200;DHT22;33094;48.782;9.162;2023-09-07T08:27:46;21.20;99.50
25200;DHT22;33094;48.782;9.162;2023-09-07T08:30:16;21.60;98.80
25200;DHT22;33094;48.782;9.162;2023-09-07T08:32:46;21.90;98.50
25200;DHT22;33094;48.782;9.162;2023-09-07T08:35:11;23.00;97.80
25200;DHT22;33094;48.782;9.162;2023-09-07T08:37:42;24.50;95.90
25200;DHT22;33094;48.782;9.162;2023-09-07T08:40:08;26.10;93.80
25200;DHT22;33094;48.782;9.162;2023-09-07T08:42:38;27.20;92.40
25200;DHT22;33094;48.782;9.162;2023-09-07T08:45:04;27.80;91.60
25200;DHT22;33094;48.782;9.162;2023-09-07T08:47:34;29.20;90.40
25200;DHT22;33094;48.782;9.162;2023-09-07T08:50:01;28.10;90.60
25200;DHT22;33094;48.782;9.162;2023-09-07T08:52:27;28.70;90.10
25200;DHT22;33094;48.782;9.162;2023-09-07T08:54:55;29.30;89.20
25200;DHT22;33094;48.782;9.162;2023-09-07T08:57:24;29.00;90.20
25200;DHT22;33094;48.782;9.162;2023-09-07T08:59:50;30.00;87.60
25200;DHT22;33094;48.782;9.162;2023-09-07T09:02:15;30.90;87.40
25200;DHT22;33094;48.782;9.162;2023-09-07T09:04:42;32.00;84.80
25200;DHT22;33094;48.782;9.162;2023-09-07T09:07:07;32.40;83.40
25200;DHT22;33094;48.782;9.162;2023-09-07T09:09:33;32.80;82.60
25200;DHT22;33094;48.782;9.162;2023-09-07T09:12:08;32.50;82.60
25200;DHT22;33094;48.782;9.162;2023-09-07T09:14:34;32.60;82.30
25200;DHT22;33094;48.782;9.162;2023-09-07T09:17:01;31.70;83.00
25200;DHT22;33094;48.782;9.162;2023-09-07T09:19:31;29.60;86.60
25200;DHT22;33094;48.782;9.162;2023-09-07T09:21:58;29.50;87.00
25200;DHT22;33094;48.782;9.162;2023-09-07T09:24:23;29.90;87.80
25200;DHT22;33094;48.782;9.162;2023-09-07T09:26:49;30.80;85.60
25200;DHT22;33094;48.782;9.162;2023-09-07T09:29:15;31.20;84.80
25200;DHT22;33094;48.782;9.162;2023-09-07T09:31:41;31.20;84.90
25200;DHT22;33094;48.782;9.162;2023-09-07T09:34:06;32.10;83.90
25200;DHT22;33094;48.782;9.162;2023-09-07T09:36:36;31.60;83.30
25200;DHT22;33094;48.782;9.162;2023-09-07T09:39:02;31.40;84.60
25200;DHT22;33094;48.782;9.162;2023-09-07T09:41:32;31.20;84.40
25200;DHT22;33094;48.782;9.162;2023-09-07T09:44:00;30.30;85.70
25200;DHT22;33094;48.782;9.162;2023-09-07T09:46:29;30.80;85.30
25200;DHT22;33094;48.782;9.162;2023-09-07T09:48:57;31.10;85.10
25200;DHT22;33094;48.782;9.162;2023-09-07T09:51:24;31.10;85.60
25200;DHT22;33094;48.782;9.162;2023-09-07T09:53:50;29.70;86.60
25200;DHT22;33094;48.782;9.162;2023-09-07T09:56:16;30.60;86.60
25200;DHT22;33094;48.782;9.162;2023-09-07T09:58:43;31.20;85.10
25200;DHT22;33094;48.782;9.162;2023-09-07T10:01:08;32.50;84.30
25200;DHT22;33094;48.782;9.162;2023-09-07T10:03:44;33.00;82.40
25200;DHT22;33094;48.782;9.162;2023-09-07T10:08:59;33.40;81.40
25200;DHT22;33094;48.782;9.162;2023-09-07T10:11:32;33.00;81.90
25200;DHT22;33094;48.782;9.162;2023-09-07T10:14:00;32.60;83.00
25200;DHT22;33094;48.782;9.162;2023-09-07T10:16:28;33.10;82.20
25200;DHT22;33094;48.782;9.162;2023-09-07T10:18:55;33.70;81.80
25200;DHT22;33094;48.782;9.162;2023-09-07T10:21:25;34.30;80.60
25200;DHT22;33094;48.782;9.162;2023-09-07T10:23:52;33.50;81.10
25200;DHT22;33094;48.782;9.162;2023-09-07T10:26:19;33.70;81.80
25200;DHT22;33094;48.782;9.162;2023-09-07T10:28:59;32.60;81.80
25200;DHT22;33094;48.782;9.162;2023-09-07T10:31:26;32.10;83.00
25200;DHT22;33094;48.782;9.162;2023-09-07T10:33:53;32.80;83.00
25200;DHT22;33094;48.782;9.162;2023-09-07T10:36:26;33.20;81.50
25200;DHT22;33094;48.782;9.162;2023-09-07T10:38:55;33.80;81.20
25200;DHT22;33094;48.782;9.162;2023-09-07T10:41:22;34.10;81.20
25200;DHT22;33094;48.782;9.162;2023-09-07T10:43:48;33.80;80.80
25200;DHT22;33094;48.782;9.162;2023-09-07T10:46:14;34.20;80.60
25200;DHT22;33094;48.782;9.162;2023-09-07T10:48:43;34.40;80.20
25200;DHT22;33094;48.782;9.162;2023-09-07T10:51:08;34.30;80.10
25200;DHT22;33094;48.782;9.162;2023-09-07T10:53:34;34.30;80.00
25200;DHT22;33094;48.782;9.162;2023-09-07T10:56:02;34.10;80.90
25200;DHT22;33094;48.782;9.162;2023-09-07T10:58:34;33.50;80.80
25200;DHT22;33094;48.782;9.162;2023-09-07T11:01:01;33.10;82.00
25200;DHT22;33094;48.782;9.162;2023-09-07T11:03:29;32.90;82.20
25200;DHT22;33094;48.782;9.162;2023-09-07T11:05:55;33.80;81.00
25200;DHT22;33094;48.782;9.162;2023-09-07T11:08:24;34.00;80.80
25200;DHT22;33094;48.782;9.162;2023-09-07T11:10:50;34.00;81.40
25200;DHT22;33094;48.782;9.162;2023-09-07T11:13:17;34.10;81.00
25200;DHT22;33094;48.782;9.162;2023-09-07T11:15:42;34.20;81.00
25200;DHT22;33094;48.782;9.162;2023-09-07T11:18:08;34.20;80.70
25200;DHT22;33094;48.782;9.162;2023-09-07T11:20:35;34.30;80.60
25200;DHT22;33094;48.782;9.162;2023-09-07T11:23:02;33.90;80.70
25200;DHT22;33094;48.782;9.162;2023-09-07T11:25:38;34.00;80.70
25200;DHT22;33094;48.782;9.162;2023-09-07T11:28:06;34.00;80.30
25200;DHT22;33094;48.782;9.162;2023-09-07T11:30:33;34.60;80.00
25200;DHT22;33094;48.782;9.162;2023-09-07T11:33:05;34.90;79.60
25200;DHT22;33094;48.782;9.162;2023-09-07T11:35:31;35.10;79.20
25200;DHT22;33094;48.782;9.162;2023-09-07T11:38:02;35.20;78.80
25200;DHT22;33094;48.782;9.162;2023-09-07T11:40:30;34.70;79.60
25200;DHT22;33094;48.782;9.162;2023-09-07T11:42:56;32.50;82.00
25200;DHT22;33094;48.782;9.162;2023-09-07T11:45:21;32.00;84.10
25200;DHT22;33094;48.782;9.162;2023-09-07T11:47:47;32.50;83.10
25200;DHT22;33094;48.782;9.162;2023-09-07T11:50:16;33.50;82.50
25200;DHT22;33094;48.782;9.162;2023-09-07T11:52:42;34.00;81.20
25200;DHT22;33094;48.782;9.162;2023-09-07T11:55:07;33.80;81.00
25200;DHT22;33094;48.782;9.162;2023-09-07T11:57:33;33.60;81.90
25200;DHT22;33094;48.782;9.162;2023-09-07T11:59:59;34.00;81.10
25200;DHT22;33094;48.782;9.162;2023-09-07T12:02:25;34.40;80.40
25200;DHT22;33094;48.782;9.162;2023-09-07T12:04:52;34.50;80.40
25200;DHT22;33094;48.782;9.162;2023-09-07T12:07:17;34.30;80.60
25200;DHT22;33094;48.782;9.162;2023-09-07T12:09:43;34.60;80.10
25200;DHT22;33094;48.782;9.162;2023-09-07T12:12:08;35.20;79.60
25200;DHT22;33094;48.782;9.162;2023-09-07T12:14:36;35.30;79.40
25200;DHT22;33094;48.782;9.162;2023-09-07T12:17:01;34.60;79.30
25200;DHT22;33094;48.782;9.162;2023-09-07T12:19:27;33.80;81.00
25200;DHT22;33094;48.782;9.162;2023-09-07T12:21:53;33.80;81.00
25200;DHT22;33094;48.782;9.162;2023-09-07T12:24:18;33.80;80.10
25200;DHT22;33094;48.782;9.162;2023-09-07T12:26:44;33.90;81.00
25200;DHT22;33094;48.782;9.162;2023-09-07T12:29:10;33.90;80.70
25200;DHT22;33094;48.782;9.162;2023-09-07T12:31:35;34.20;79.80
25200;DHT22;33094;48.782;9.162;2023-09-07T12:34:01;34.30;79.20
25200;DHT22;33094;48.782;9.162;2023-09-07T12:36:26;35.00;78.90
25200;DHT22;33094;48.782;9.162;2023-09-07T12:38:55;34.90;78.80
25200;DHT22;33094;48.782;9.162;2023-09-07T12:41:27;35.10;78.10
25200;DHT22;33094;48.782;9.162;2023-09-07T12:43:53;35.30;77.80
25200;DHT22;33094;48.782;9.162;2023-09-07T12:46:19;35.50;77.60
25200;DHT22;33094;48.782;9.162;2023-09-07T12:48:44;36.10;76.20
25200;DHT22;33094;48.782;9.162;2023-09-07T12:51:10;36.20;75.70
25200;DHT22;33094;48.782;9.162;2023-09-07T12:53:35;35.90;76.00
25200;DHT22;33094;48.782;9.162;2023-09-07T12:56:01;34.40;77.50
25200;DHT22;33094;48.782;9.162;2023-09-07T12:58:28;34.60;77.30
25200;DHT22;33094;48.782;9.162;2023-09-07T13:00:54;35.30;76.20
25200;DHT22;33094;48.782;9.162;2023-09-07T13:03:20;36.00;75.70
25200;DHT22;33094;48.782;9.162;2023-09-07T13:05:45;36.00;74.80
25200;DHT22;33094;48.782;9.162;2023-09-07T13:08:11;36.20;74.70
25200;DHT22;33094;48.782;9.162;2023-09-07T13:10:38;35.20;75.50
25200;DHT22;33094;48.782;9.162;2023-09-07T13:13:04;35.40;75.70
25200;DHT22;33094;48.782;9.162;2023-09-07T13:15:29;35.60;75.40
25200;DHT22;33094;48.782;9.162;2023-09-07T13:17:55;35.00;75.90
25200;DHT22;33094;48.782;9.162;2023-09-07T13:20:21;33.90;77.80
25200;DHT22;33094;48.782;9.162;2023-09-07T13:22:46;33.60;78.90
25200;DHT22;33094;48.782;9.162;2023-09-07T13:25:12;32.40;80.40
25200;DHT22;33094;48.782;9.162;2023-09-07T13:27:38;31.80;81.70
25200;DHT22;33094;48.782;9.162;2023-09-07T13:30:05;31.40;82.20
25200;DHT22;33094;48.782;9.162;2023-09-07T13:32:33;31.00;83.40
25200;DHT22;33094;48.782;9.162;2023-09-07T13:35:00;31.00;83.10
25200;DHT22;33094;48.782;9.162;2023-09-07T13:37:26;30.70;83.90
25200;DHT22;33094;48.782;9.162;2023-09-07T13:39:52;30.60;84.60
25200;DHT22;33094;48.782;9.162;2023-09-07T13:42:18;30.50;84.70
25200;DHT22;33094;48.782;9.162;2023-09-07T13:44:44;30.30;84.90
25200;DHT22;33094;48.782;9.162;2023-09-07T13:47:13;30.30;84.80
25200;DHT22;33094;48.782;9.162;2023-09-07T13:49:39;30.10;84.80
25200;DHT22;33094;48.782;9.162;2023-09-07T13:52:05;30.10;84.70
25200;DHT22;33094;48.782;9.162;2023-09-07T13:54:30;30.20;84.70
25200;DHT22;33094;48.782;9.162;2023-09-07T13:56:56;30.30;84.90
25200;DHT22;33094;48.782;9.162;2023-09-07T13:59:22;30.30;84.40
25200;DHT22;33094;48.782;9.162;2023-09-07T14:01:47;30.40;84.60
25200;DHT22;33094;48.782;9.162;2023-09-07T14:04:14;30.50;84.40
25200;DHT22;33094;48.782;9.162;2023-09-07T14:06:40;30.40;84.20
25200;DHT22;33094;48.782;9.162;2023-09-07T14:09:06;30.00;85.30
25200;DHT22;33094;48.782;9.162;2023-09-07T14:11:32;30.00;85.00
25200;DHT22;33094;48.782;9.162;2023-09-07T14:13:58;30.20;85.40
25200;DHT22;33094;48.782;9.162;2023-09-07T14:16:27;30.30;84.80
25200;DHT22;33094;48.782;9.162;2023-09-07T14:18:52;30.30;85.00
25200;DHT22;33094;48.782;9.162;2023-09-07T14:21:18;30.20;84.60
25200;DHT22;33094;48.782;9.162;2023-09-07T14:23:44;30.10;84.10
25200;DHT22;33094;48.782;9.162;2023-09-07T14:26:10;30.00;84.50
25200;DHT22;33094;48.782;9.162;2023-09-07T14:28:35;29.80;84.90
25200;DHT22;33094;48.782;9.162;2023-09-07T14:31:03;29.80;85.60
25200;DHT22;33094;48.782;9.162;2023-09-07T14:33:32;29.90;85.90
25200;DHT22;33094;48.782;9.162;2023-09-07T14:35:58;30.30;85.10
25200;DHT22;33094;48.782;9.162;2023-09-07T14:38:23;30.30;85.30
25200;DHT22;33094;48.782;9.162;2023-09-07T14:40:49;30.30;85.50
25200;DHT22;33094;48.782;9.162;2023-09-07T14:43:16;30.30;84.80
25200;DHT22;33094;48.782;9.162;2023-09-07T14:45:43;30.20;86.20
25200;DHT22;33094;48.782;9.162;2023-09-07T14:48:10;30.20;85.70
25200;DHT22;33094;48.782;9.162;2023-09-07T14:50:36;30.10;85.40
25200;DHT22;33094;48.782;9.162;2023-09-07T14:53:03;30.00;85.00
25200;DHT22;33094;48.782;9.162;2023-09-07T14:55:29;29.90;85.50
25200;DHT22;33094;48.782;9.162;2023-09-07T14:57:55;29.80;85.70
25200;DHT22;33094;48.782;9.162;2023-09-07T15:00:21;29.80;85.60
25200;DHT22;33094;48.782;9.162;2023-09-07T15:02:48;29.90;85.70
25200;DHT22;33094;48.782;9.162;2023-09-07T15:05:13;29.90;85.50
25200;DHT22;33094;48.782;9.162;2023-09-07T15:07:39;29.70;86.20
25200;DHT22;33094;48.782;9.162;2023-09-07T15:10:05;29.70;86.10
25200;DHT22;33094;48.782;9.162;2023-09-07T15:12:31;29.80;85.80
25200;DHT22;33094;48.782;9.162;2023-09-07T15:14:56;29.70;85.60
25200;DHT22;33094;48.782;9.162;2023-09-07T15:17:22;29.70;86.00
25200;DHT22;33094;48.782;9.162;2023-09-07T15:19:47;29.70;86.00
25200;DHT22;33094;48.782;9.162;2023-09-07T15:22:13;29.80;86.70
25200;DHT22;33094;48.782;9.162;2023-09-07T15:24:39;29.70;86.70
25200;DHT22;33094;48.782;9.162;2023-09-07T15:27:09;29.60;87.00
25200;DHT22;33094;48.782;9.162;2023-09-07T15:29:35;29.60;87.20
25200;DHT22;33094;48.782;9.162;2023-09-07T15:32:01;29.50;87.10
25200;DHT22;33094;48.782;9.162;2023-09-07T15:34:27;29.50;86.60
25200;DHT22;33094;48.782;9.162;2023-09-07T15:36:52;29.50;86.90
25200;DHT22;33094;48.782;9.162;2023-09-07T15:39:18;29.40;87.10
25200;DHT22;33094;48.782;9.162;2023-09-07T15:41:45;29.50;86.50
25200;DHT22;33094;48.782;9.162;2023-09-07T15:44:11;29.50;86.70
25200;DHT22;33094;48.782;9.162;2023-09-07T15:46:36;29.40;87.20
25200;DHT22;33094;48.782;9.162;2023-09-07T15:49:03;29.40;86.60
25200;DHT22;33094;48.782;9.162;2023-09-07T15:51:29;29.30;86.40
25200;DHT22;33094;48.782;9.162;2023-09-07T15:53:54;29.20;86.40
25200;DHT22;33094;48.782;9.162;2023-09-07T15:56:20;29.20;86.30
25200;DHT22;33094;48.782;9.162;2023-09-07T15:58:46;29.20;86.50
25200;DHT22;33094;48.782;9.162;2023-09-07T16:01:12;29.10;86.50
25200;DHT22;33094;48.782;9.162;2023-09-07T16:03:41;29.00;86.90
25200;DHT22;33094;48.782;9.162;2023-09-07T16:06:09;29.00;86.80
25200;DHT22;33094;48.782;9.162;2023-09-07T16:08:35;29.10;86.90
25200;DHT22;33094;48.782;9.162;2023-09-07T16:11:01;29.10;86.30
25200;DHT22;33094;48.782;9.162;2023-09-07T16:13:28;29.10;85.90
25200;DHT22;33094;48.782;9.162;2023-09-07T16:15:55;29.10;86.10
25200;DHT22;33094;48.782;9.162;2023-09-07T16:18:20;29.00;85.80
25200;DHT22;33094;48.782;9.162;2023-09-07T16:20:46;29.00;86.10
25200;DHT22;33094;48.782;9.162;2023-09-07T16:23:15;29.00;85.90
25200;DHT22;33094;48.782;9.162;2023-09-07T16:25:41;28.90;85.70
25200;DHT22;33094;48.782;9.162;2023-09-07T16:28:07;28.80;85.90
25200;DHT22;33094;48.782;9.162;2023-09-07T16:30:32;28.80;85.80
25200;DHT22;33094;48.782;9.162;2023-09-07T16:32:58;28.80;85.50
25200;DHT22;33094;48.782;9.162;2023-09-07T16:35:24;28.80;85.70
25200;DHT22;33094;48.782;9.162;2023-09-07T16:37:49;28.70;85.40
25200;DHT22;33094;48.782;9.162;2023-09-07T16:40:16;28.60;85.40
25200;DHT22;33094;48.782;9.162;2023-09-07T16:42:42;28.70;85.80
25200;DHT22;33094;48.782;9.162;2023-09-07T16:45:08;28.70;85.50
25200;DHT22;33094;48.782;9.162;2023-09-07T16:47:34;28.60;85.40
25200;DHT22;33094;48.782;9.162;2023-09-07T16:49:59;28.50;85.30
25200;DHT22;33094;48.782;9.162;2023-09-07T16:52:26;28.40;85.70
25200;DHT22;33094;48.782;9.162;2023-09-07T16:54:53;28.40;85.00
25200;DHT22;33094;48.782;9.162;2023-09-07T16:57:19;28.40;85.70
25200;DHT22;33094;48.782;9.162;2023-09-07T16:59:45;28.30;85.10
25200;DHT22;33094;48.782;9.162;2023-09-07T17:02:12;28.20;85.30
25200;DHT22;33094;48.782;9.162;2023-09-07T17:04:41;28.10;85.00
25200;DHT22;33094;48.782;9.162;2023-09-07T17:07:07;28.00;84.60
25200;DHT22;33094;48.782;9.162;2023-09-07T17:09:32;28.00;84.50
25200;DHT22;33094;48.782;9.162;2023-09-07T17:11:59;27.90;84.80
25200;DHT22;33094;48.782;9.162;2023-09-07T17:14:28;27.90;84.40
25200;DHT22;33094;48.782;9.162;2023-09-07T17:16:54;27.80;85.50
25200;DHT22;33094;48.782;9.162;2023-09-07T17:19:23;27.70;84.40
25200;DHT22;33094;48.782;9.162;2023-09-07T17:21:54;27.70;84.60
25200;DHT22;33094;48.782;9.162;2023-09-07T17:24:20;27.70;84.40
25200;DHT22;33094;48.782;9.162;2023-09-07T17:26:46;27.60;84.40
25200;DHT22;33094;48.782;9.162;2023-09-07T17:29:12;27.50;84.60
25200;DHT22;33094;48.782;9.162;2023-09-07T17:31:39;27.40;84.80
25200;DHT22;33094;48.782;9.162;2023-09-07T17:34:05;27.30;84.50
25200;DHT22;33094;48.782;9.162;2023-09-07T17:36:30;27.30;84.70
25200;DHT22;33094;48.782;9.162;2023-09-07T17:38:57;27.10;85.50
25200;DHT22;33094;48.782;9.162;2023-09-07T17:41:30;27.00;85.60
25200;DHT22;33094;48.782;9.162;2023-09-07T17:43:56;26.90;86.00
25200;DHT22;33094;48.782;9.162;2023-09-07T17:46:23;26.80;86.40
25200;DHT22;33094;48.782;9.162;2023-09-07T17:48:49;26.60;87.50
25200;DHT22;33094;48.782;9.162;2023-09-07T17:51:16;26.50;87.60
25200;DHT22;33094;48.782;9.162;2023-09-07T17:53:42;26.30;89.20
25200;DHT22;33094;48.782;9.162;2023-09-07T17:56:09;26.20;89.60
25200;DHT22;33094;48.782;9.162;2023-09-07T17:58:41;26.10;89.40
25200;DHT22;33094;48.782;9.162;2023-09-07T18:01:16;26.00;90.20
25200;DHT22;33094;48.782;9.162;2023-09-07T18:03:42;25.80;90.30
25200;DHT22;33094;48.782;9.162;2023-09-07T18:06:08;25.60;90.80
25200;DHT22;33094;48.782;9.162;2023-09-07T18:08:35;25.50;90.90
25200;DHT22;33094;48.782;9.162;2023-09-07T18:11:01;25.40;91.20
25200;DHT22;33094;48.782;9.162;2023-09-07T18:13:27;25.30;91.30
25200;DHT22;33094;48.782;9.162;2023-09-07T18:15:53;25.30;91.40
25200;DHT22;33094;48.782;9.162;2023-09-07T18:18:19;25.20;91.70
25200;DHT22;33094;48.782;9.162;2023-09-07T18:20:44;25.10;91.90
25200;DHT22;33094;48.782;9.162;2023-09-07T18:23:13;24.90;92.10
25200;DHT22;33094;48.782;9.162;2023-09-07T18:25:39;24.90;92.20
25200;DHT22;33094;48.782;9.162;2023-09-07T18:28:05;24.80;92.40
25200;DHT22;33094;48.782;9.162;2023-09-07T18:30:32;24.60;92.60
25200;DHT22;33094;48.782;9.162;2023-09-07T18:32:58;24.60;92.60
25200;DHT22;33094;48.782;9.162;2023-09-07T18:35:25;24.60;92.90
25200;DHT22;33094;48.782;9.162;2023-09-07T18:37:52;24.50;93.10
25200;DHT22;33094;48.782;9.162;2023-09-07T18:40:17;24.40;93.30
25200;DHT22;33094;48.782;9.162;2023-09-07T18:42:43;24.40;93.30
25200;DHT22;33094;48.782;9.162;2023-09-07T18:45:09;24.20;93.40
25200;DHT22;33094;48.782;9.162;2023-09-07T18:47:35;24.10;93.40
25200;DHT22;33094;48.782;9.162;2023-09-07T18:50:03;24.10;93.40
25200;DHT22;33094;48.782;9.162;2023-09-07T18:52:32;24.10;93.50
25200;DHT22;33094;48.782;9.162;2023-09-07T18:54:58;24.10;93.30
25200;DHT22;33094;48.782;9.162;2023-09-07T18:57:24;24.00;93.40
25200;DHT22;33094;48.782;9.162;2023-09-07T18:59:49;24.00;93.60
25200;DHT22;33094;48.782;9.162;2023-09-07T19:02:18;24.00;93.60
25200;DHT22;33094;48.782;9.162;2023-09-07T19:04:43;23.90;93.80
25200;DHT22;33094;48.782;9.162;2023-09-07T19:07:10;23.90;93.90
25200;DHT22;33094;48.782;9.162;2023-09-07T19:09:40;23.90;94.00
25200;DHT22;33094;48.782;9.162;2023-09-07T19:12:07;23.80;94.30
25200;DHT22;33094;48.782;9.162;2023-09-07T19:14:33;23.80;94.20
25200;DHT22;33094;48.782;9.162;2023-09-07T19:16:58;23.60;94.30
25200;DHT22;33094;48.782;9.162;2023-09-07T19:19:24;23.60;94.30
25200;DHT22;33094;48.782;9.162;2023-09-07T19:21:50;23.50;94.40
25200;DHT22;33094;48.782;9.162;2023-09-07T19:24:15;23.50;94.60
25200;DHT22;33094;48.782;9.162;2023-09-07T19:26:41;23.50;94.50
25200;DHT22;33094;48.782;9.162;2023-09-07T19:29:08;23.40;94.70
25200;DHT22;33094;48.782;9.162;2023-09-07T19:31:35;23.40;94.80
25200;DHT22;33094;48.782;9.162;2023-09-07T19:34:02;23.30;94.90
25200;DHT22;33094;48.782;9.162;2023-09-07T19:36:30;23.20;95.00
25200;DHT22;33094;48.782;9.162;2023-09-07T19:38:56;23.20;95.10
25200;DHT22;33094;48.782;9.162;2023-09-07T19:41:23;23.20;95.10
25200;DHT22;33094;48.782;9.162;2023-09-07T19:43:49;23.10;95.10
25200;DHT22;33094;48.782;9.162;2023-09-07T19:46:15;23.10;95.00
25200;DHT22;33094;48.782;9.162;2023-09-07T19:48:42;23.10;95.20
25200;DHT22;33094;48.782;9.162;2023-09-07T19:51:11;23.00;95.40
25200;DHT22;33094;48.782;9.162;2023-09-07T19:53:38;22.90;95.50
25200;DHT22;33094;48.782;9.162;2023-09-07T19:56:20;22.90;95.60
25200;DHT22;33094;48.782;9.162;2023-09-07T19:58:47;22.70;95.70
25200;DHT22;33094;48.782;9.162;2023-09-07T20:01:20;22.70;95.80
25200;DHT22;33094;48.782;9.162;2023-09-07T20:03:51;22.70;95.90
25200;DHT22;33094;48.782;9.162;2023-09-07T20:06:19;22.70;96.00
25200;DHT22;33094;48.782;9.162;2023-09-07T20:08:45;22.60;96.10
25200;DHT22;33094;48.782;9.162;2023-09-07T20:11:12;22.60;96.00
25200;DHT22;33094;48.782;9.162;2023-09-07T20:13:40;22.50;96.10
25200;DHT22;33094;48.782;9.162;2023-09-07T20:16:07;22.50;96.30
25200;DHT22;33094;48.782;9.162;2023-09-07T20:18:38;22.40;96.30
25200;DHT22;33094;48.782;9.162;2023-09-07T20:21:06;22.40;96.30
25200;DHT22;33094;48.782;9.162;2023-09-07T20:23:32;22.40;96.50
25200;DHT22;33094;48.782;9.162;2023-09-07T20:26:00;22.30;96.60
25200;DHT22;33094;48.782;9.162;2023-09-07T20:28:26;22.30;96.60
25200;DHT22;33094;48.782;9.162;2023-09-07T20:30:52;22.20;96.60
25200;DHT22;33094;48.782;9.162;2023-09-07T20:33:17;22.20;96.60
25200;DHT22;33094;48.782;9.162;2023-09-07T20:35:43;22.20;96.60
25200;DHT22;33094;48.782;9.162;2023-09-07T20:38:09;22.20;96.70
25200;DHT22;33094;48.782;9.162;2023-09-07T20:40:37;22.10;96.70
25200;DHT22;33094;48.782;9.162;2023-09-07T20:43:03;22.10;96.70
25200;DHT22;33094;48.782;9.162;2023-09-07T20:45:32;22.10;96.70
25200;DHT22;33094;48.782;9.162;2023-09-07T20:47:57;22.00;96.80
25200;DHT22;33094;48.782;9.162;2023-09-07T20:50:23;21.80;96.90
25200;DHT22;33094;48.782;9.162;2023-09-07T20:52:49;21.70;97.10
25200;DHT22;33094;48.782;9.162;2023-09-07T20:55:14;21.60;97.20
25200;DHT22;33094;48.782;9.162;2023-09-07T20:57:41;21.50;97.00
25200;DHT22;33094;48.782;9.162;2023-09-07T21:00:08;21.50;96.90
25200;DHT22;33094;48.782;9.162;2023-09-07T21:02:36;21.50;96.60
25200;DHT22;33094;48.782;9.162;2023-09-07T21:05:02;21.50;96.70
25200;DHT22;33094;48.782;9.162;2023-09-07T21:07:28;21.40;97.20
25200;DHT22;33094;48.782;9.162;2023-09-07T21:09:53;21.50;96.80
25200;DHT22;33094;48.782;9.162;2023-09-07T21:12:19;21.50;96.70
25200;DHT22;33094;48.782;9.162;2023-09-07T21:14:44;21.60;96.70
25200;DHT22;33094;48.782;9.162;2023-09-07T21:17:10;21.40;96.80
25200;DHT22;33094;48.782;9.162;2023-09-07T21:19:36;21.30;96.90
25200;DHT22;33094;48.782;9.162;2023-09-07T21:22:02;21.20;96.90
25200;DHT22;33094;48.782;9.162;2023-09-07T21:24:28;21.20;97.10
25200;DHT22;33094;48.782;9.162;2023-09-07T21:26:54;21.10;97.10
25200;DHT22;33094;48.782;9.162;2023-09-07T21:29:20;21.10;97.00
25200;DHT22;33094;48.782;9.162;2023-09-07T21:31:45;20.90;97.20
25200;DHT22;33094;48.782;9.162;2023-09-07T21:34:11;20.90;97.30
25200;DHT22;33094;48.782;9.162;2023-09-07T21:36:37;20.80;97.50
25200;DHT22;33094;48.782;9.162;2023-09-07T21:39:02;20.80;97.60
25200;DHT22;33094;48.782;9.162;2023-09-07T21:41:51;20.70;97.70
25200;DHT22;33094;48.782;9.162;2023-09-07T21:44:21;20.70;97.70
25200;DHT22;33094;48.782;9.162;2023-09-07T21:46:48;20.70;97.70
25200;DHT22;33094;48.782;9.162;2023-09-07T21:49:14;20.70;97.80
25200;DHT22;33094;48.782;9.162;2023-09-07T21:51:41;20.70;97.70
25200;DHT22;33094;48.782;9.162;2023-09-07T21:54:07;20.80;97.80
25200;DHT22;33094;48.782;9.162;2023-09-07T21:56:34;20.70;97.80